sensor_id;sensor_type;location;lat;lon;timestamp;pressure;altitude;pressure_sealevel;temperature;humidity
29935;BME280;19905;53.370;-6.314;2022-09-09T00:00:25;100294.47;;;14.68;100.00
29935;BME280;19905;53.370;-6.314;2022-09-09T00:03:00;100293.47;;;14.69;100.00
29935;BME280;19905;53.370;-6.314;2022-09-09T00:05:33;100289.78;;;14.62;100.00
29935;BME280;19905;53.370;-6.314;2022-09-09T00:08:20;100291.91;;;14.58;100.00
29935;BME280;19905;53.370;-6.314;2022-09-09T00:13:25;100301.63;;;14.49;100.00
29935;BME280;19905;53.370;-6.314;2022-09-09T00:16:02;100304.16;;;14.41;100.00
29935;BME280;19905;53.370;-6.314;2022-09-09T00:18:44;100301.97;;;14.37;100.00
29935;BME280;19905;53.370;-6.314;2022-09-09T00:21:16;100299.31;;;14.37;100.00
29935;BME280;19905;53.370;-6.314;2022-09-09T00:23:51;100300.00;;;14.39;100.00
29935;BME280;19905;53.370;-6.314;2022-09-09T00:26:30;100313.28;;;14.39;100.00
29935;BME280;19905;53.370;-6.314;2022-09-09T00:29:05;100313.06;;;14.32;100.00
29935;BME280;19905;53.370;-6.314;2022-09-09T00:31:38;100310.69;;;14.29;100.00
29935;BME280;19905;53.370;-6.314;2022-09-09T00:34:11;100305.78;;;14.34;100.00
29935;BME280;19905;53.370;-6.314;2022-09-09T00:36:41;100307.53;;;14.26;100.00
29935;BME280;19905;53.370;-6.314;2022-09-09T00:39:20;100308.47;;;14.24;100.00
29935;BME280;19905;53.370;-6.314;2022-09-09T00:41:59;100309.84;;;14.29;100.00
29935;BME280;19905;53.370;-6.314;2022-09-09T00:44:37;100305.69;;;14.26;100.00
29935;BME280;19905;53.370;-6.314;2022-09-09T00:47:20;100304.69;;;14.27;100.00
29935;BME280;19905;53.370;-6.314;2022-09-09T00:50:00;100305.53;;;14.28;100.00
29935;BME280;19905;53.370;-6.314;2022-09-09T00:52:39;100303.31;;;14.23;100.00
29935;BME280;19905;53.370;-6.314;2022-09-09T00:55:19;100307.66;;;14.24;100.00
29935;BME280;19905;53.370;-6.314;2022-09-09T00:57:52;100304.16;;;14.23;100.00
29935;BME280;19905;53.370;-6.314;2022-09-09T01:00:24;100299.28;;;14.19;100.00
29935;BME280;19905;53.370;-6.314;2022-09-09T01:03:17;100301.13;;;14.18;100.00
29935;BME280;19905;53.370;-6.314;2022-09-09T01:05:56;100293.44;;;14.15;100.00
29935;BME280;19905;53.370;-6.314;2022-09-09T01:08:45;100294.16;;;14.17;100.00
29935;BME280;19905;53.370;-6.314;2022-09-09T01:11:21;100301.56;;;14.14;100.00
29935;BME280;19905;53.370;-6.314;2022-09-09T01:14:00;100304.06;;;14.15;100.00
29935;BME280;19905;53.370;-6.314;2022-09-09T01:16:31;100301.88;;;14.11;100.00
29935;BME280;19905;53.370;-6.314;2022-09-09T01:19:03;100304.69;;;14.09;100.00
29935;BME280;19905;53.370;-6.314;2022-09-09T01:24:22;100309.38;;;14.15;100.00
29935;BME280;19905;53.370;-6.314;2022-09-09T01:26:59;100304.69;;;14.09;100.00
29935;BME280;19905;53.370;-6.314;2022-09-09T01:29:32;100304.94;;;14.16;100.00
29935;BME280;19905;53.370;-6.314;2022-09-09T01:32:02;100300.56;;;14.15;100.00
29935;BME280;19905;53.370;-6.314;2022-09-09T01:34:35;100298.53;;;14.09;100.00
29935;BME280;19905;53.370;-6.314;2022-09-09T01:37:08;100301.47;;;14.06;100.00
29935;BME280;19905;53.370;-6.314;2022-09-09T01:39:39;100301.34;;;14.07;100.00
29935;BME280;19905;53.370;-6.314;2022-09-09T01:42:15;100305.66;;;14.08;100.00
29935;BME280;19905;53.370;-6.314;2022-09-09T01:44:44;100303.69;;;14.10;100.00
29935;BME280;19905;53.370;-6.314;2022-09-09T01:47:15;100309.00;;;14.10;100.00
29935;BME280;19905;53.370;-6.314;2022-09-09T01:49:44;100312.25;;;14.04;100.00
29935;BME280;19905;53.370;-6.314;2022-09-09T01:52:14;100309.75;;;14.03;100.00
29935;BME280;19905;53.370;-6.314;2022-09-09T01:54:44;100311.59;;;14.02;100.00
29935;BME280;19905;53.370;-6.314;2022-09-09T01:57:24;100303.31;;;14.05;100.00
29935;BME280;19905;53.370;-6.314;2022-09-09T02:00:05;100307.94;;;14.03;100.00
29935;BME280;19905;53.370;-6.314;2022-09-09T02:02:43;100300.09;;;14.02;100.00
29935;BME280;19905;53.370;-6.314;2022-09-09T02:05:25;100303.31;;;14.05;100.00
29935;BME280;19905;53.370;-6.314;2022-09-09T02:08:03;100303.47;;;14.04;100.00
29935;BME280;19905;53.370;-6.314;2022-09-09T02:10:37;100305.81;;;14.07;100.00
29935;BME280;19905;53.370;-6.314;2022-09-09T02:13:14;100303.47;;;14.04;100.00
29935;BME280;19905;53.370;-6.314;2022-09-09T02:15:50;100300.81;;;14.04;100.00
29935;BME280;19905;53.370;-6.314;2022-09-09T02:18:28;100305.97;;;14.05;100.00
29935;BME280;19905;53.370;-6.314;2022-09-09T02:20:59;100306.78;;;14.06;100.00
29935;BME280;19905;53.370;-6.314;2022-09-09T02:23:28;100307.50;;;14.08;100.00
29935;BME280;19905;53.370;-6.314;2022-09-09T02:25:58;100302.72;;;14.11;100.00
29935;BME280;19905;53.370;-6.314;2022-09-09T02:28:30;100304.00;;;14.07;100.00
29935;BME280;19905;53.370;-6.314;2022-09-09T02:31:01;100305.97;;;14.05;100.00
29935;BME280;19905;53.370;-6.314;2022-09-09T02:33:33;100306.66;;;14.07;100.00
29935;BME280;19905;53.370;-6.314;2022-09-09T02:36:05;100304.00;;;14.07;100.00
29935;BME280;19905;53.370;-6.314;2022-09-09T02:38:42;100304.13;;;14.06;100.00
29935;BME280;19905;53.370;-6.314;2022-09-09T02:41:30;100312.94;;;14.06;100.00
29935;BME280;19905;53.370;-6.314;2022-09-09T02:44:02;100304.00;;;14.07;100.00
29935;BME280;19905;53.370;-6.314;2022-09-09T02:46:50;100310.00;;;14.09;100.00
29935;BME280;19905;53.370;-6.314;2022-09-09T02:49:30;100314.03;;;14.13;100.00
29935;BME280;19905;53.370;-6.314;2022-09-09T02:52:14;100303.69;;;14.10;100.00
29935;BME280;19905;53.370;-6.314;2022-09-09T02:54:44;100306.34;;;14.10;100.00
29935;BME280;19905;53.370;-6.314;2022-09-09T02:57:19;100302.03;;;14.09;100.00
29935;BME280;19905;53.370;-6.314;2022-09-09T02:59:51;100293.38;;;14.07;100.00
29935;BME280;19905;53.370;-6.314;2022-09-09T03:02:20;100294.06;;;14.09;100.00
29935;BME280;19905;53.370;-6.314;2022-09-09T03:04:53;100288.91;;;14.08;100.00
29935;BME280;19905;53.370;-6.314;2022-09-09T03:07:23;100287.38;;;14.05;100.00
29935;BME280;19905;53.370;-6.314;2022-09-09T03:09:52;100290.34;;;14.02;100.00
29935;BME280;19905;53.370;-6.314;2022-09-09T03:12:21;100285.03;;;14.02;100.00
29935;BME280;19905;53.370;-6.314;2022-09-09T03:14:53;100286.53;;;14.05;100.00
29935;BME280;19905;53.370;-6.314;2022-09-09T03:17:22;100287.81;;;14.01;100.00
29935;BME280;19905;53.370;-6.314;2022-09-09T03:19:56;100285.03;;;14.02;100.00
29935;BME280;19905;53.370;-6.314;2022-09-09T03:22:27;100286.16;;;13.99;100.00
29935;BME280;19905;53.370;-6.314;2022-09-09T03:24:56;100287.97;;;13.99;100.00
29935;BME280;19905;53.370;-6.314;2022-09-09T03:27:25;100296.78;;;13.99;100.00
29935;BME280;19905;53.370;-6.314;2022-09-09T03:29:55;100287.97;;;13.99;100.00
29935;BME280;19905;53.370;-6.314;2022-09-09T03:32:24;100294.84;;;13.92;100.00
29935;BME280;19905;53.370;-6.314;2022-09-09T03:34:53;100293.91;;;13.93;100.00
29935;BME280;19905;53.370;-6.314;2022-09-09T03:37:22;100295.00;;;13.90;100.00
29935;BME280;19905;53.370;-6.314;2022-09-09T03:39:51;100295.16;;;13.89;100.00
29935;BME280;19905;53.370;-6.314;2022-09-09T03:42:22;100290.69;;;13.89;100.00
29935;BME280;19905;53.370;-6.314;2022-09-09T03:44:51;100297.28;;;13.85;100.00
29935;BME280;19905;53.370;-6.314;2022-09-09T03:47:21;100294.09;;;13.82;100.00
29935;BME280;19905;53.370;-6.314;2022-09-09T03:49:50;100291.13;;;13.85;100.00
29935;BME280;19905;53.370;-6.314;2022-09-09T03:52:24;100284.91;;;13.76;100.00
29935;BME280;19905;53.370;-6.314;2022-09-09T03:54:53;100287.72;;;13.75;100.00
29935;BME280;19905;53.370;-6.314;2022-09-09T03:57:24;100290.75;;;13.80;100.00
29935;BME280;19905;53.370;-6.314;2022-09-09T03:59:52;100290.38;;;13.75;100.00
29935;BME280;19905;53.370;-6.314;2022-09-09T04:02:25;100293.69;;;13.77;100.00
29935;BME280;19905;53.370;-6.314;2022-09-09T04:04:54;100287.84;;;13.73;100.00
29935;BME280;19905;53.370;-6.314;2022-09-09T04:07:23;100295.66;;;13.75;100.00
29935;BME280;19905;53.370;-6.314;2022-09-09T04:09:54;100297.91;;;13.69;100.00
29935;BME280;19905;53.370;-6.314;2022-09-09T04:12:24;100297.06;;;13.69;100.00
29935;BME280;19905;53.370;-6.314;2022-09-09T04:14:53;100302.09;;;13.72;100.00
29935;BME280;19905;53.370;-6.314;2022-09-09T04:17:22;100306.03;;;13.68;100.00
29935;BME280;19905;53.370;-6.314;2022-09-09T04:19:53;100300.88;;;13.66;100.00
29935;BME280;19905;53.370;-6.314;2022-09-09T04:22:21;100299.34;;;13.64;100.00
29935;BME280;19905;53.370;-6.314;2022-09-09T04:24:50;100298.34;;;13.65;100.00
29935;BME280;19905;53.370;-6.314;2022-09-09T04:27:19;100302.97;;;13.63;100.00
29935;BME280;19905;53.370;-6.314;2022-09-09T04:29:47;100300.16;;;13.64;100.00
29935;BME280;19905;53.370;-6.314;2022-09-09T04:32:17;100310.09;;;13.62;100.00
29935;BME280;19905;53.370;-6.314;2022-09-09T04:34:45;100309.94;;;13.64;100.00
29935;BME280;19905;53.370;-6.314;2022-09-09T04:37:17;100300.47;;;13.61;100.00
29935;BME280;19905;53.370;-6.314;2022-09-09T04:39:46;100302.16;;;13.62;100.00
29935;BME280;19905;53.370;-6.314;2022-09-09T04:42:15;100306.63;;;13.62;100.00
29935;BME280;19905;53.370;-6.314;2022-09-09T04:44:43;100307.63;;;13.61;100.00
29935;BME280;19905;53.370;-6.314;2022-09-09T04:47:12;100300.31;;;13.63;100.00
29935;BME280;19905;53.370;-6.314;2022-09-09T04:49:44;100315.56;;;13.61;100.00
29935;BME280;19905;53.370;-6.314;2022-09-09T04:52:20;100306.91;;;13.59;100.00
29935;BME280;19905;53.370;-6.314;2022-09-09T04:54:50;100303.56;;;13.57;100.00
29935;BME280;19905;53.370;-6.314;2022-09-09T04:57:25;100311.38;;;13.58;100.00
29935;BME280;19905;53.370;-6.314;2022-09-09T04:59:53;100307.19;;;13.56;100.00
29935;BME280;19905;53.370;-6.314;2022-09-09T05:02:23;100309.41;;;13.60;100.00
29935;BME280;19905;53.370;-6.314;2022-09-09T05:04:57;100306.22;;;13.57;100.00
29935;BME280;19905;53.370;-6.314;2022-09-09T05:07:28;100312.06;;;13.60;100.00
29935;BME280;19905;53.370;-6.314;2022-09-09T05:09:58;100308.06;;;13.56;100.00
29935;BME280;19905;53.370;-6.314;2022-09-09T05:12:28;100320.34;;;13.57;100.00
29935;BME280;19905;53.370;-6.314;2022-09-09T05:14:57;100307.91;;;13.58;100.00
29935;BME280;19905;53.370;-6.314;2022-09-09T05:17:27;100317.81;;;13.56;100.00
29935;BME280;19905;53.370;-6.314;2022-09-09T05:20:02;100319.63;;;13.55;100.00
29935;BME280;19905;53.370;-6.314;2022-09-09T05:22:37;100320.47;;;13.56;100.00
29935;BME280;19905;53.370;-6.314;2022-09-09T05:25:08;100322.16;;;13.57;100.00
29935;BME280;19905;53.370;-6.314;2022-09-09T05:27:36;100316.13;;;13.55;100.00
29935;BME280;19905;53.370;-6.314;2022-09-09T05:30:08;100316.13;;;13.55;100.00
29935;BME280;19905;53.370;-6.314;2022-09-09T05:32:37;100320.34;;;13.57;100.00
29935;BME280;19905;53.370;-6.314;2022-09-09T05:35:06;100320.47;;;13.56;100.00
29935;BME280;19905;53.370;-6.314;2022-09-09T05:37:37;100322.28;;;13.55;100.00
29935;BME280;19905;53.370;-6.314;2022-09-09T05:40:06;100323.97;;;13.56;100.00
29935;BME280;19905;53.370;-6.314;2022-09-09T05:42:36;100316.13;;;13.55;100.00
29935;BME280;19905;53.370;-6.314;2022-09-09T05:45:07;100327.75;;;13.54;100.00
29935;BME280;19905;53.370;-6.314;2022-09-09T05:47:36;100335.44;;;13.57;100.00
29935;BME280;19905;53.370;-6.314;2022-09-09T05:50:05;100331.94;;;13.56;100.00
29935;BME280;19905;53.370;-6.314;2022-09-09T05:52:37;100339.19;;;13.54;100.00
29935;BME280;19905;53.370;-6.314;2022-09-09T05:55:07;100348.38;;;13.60;100.00
29935;BME280;19905;53.370;-6.314;2022-09-09T05:57:36;100352.03;;;13.59;100.00
29935;BME280;19905;53.370;-6.314;2022-09-09T06:00:06;100359.00;;;13.60;100.00
29935;BME280;19905;53.370;-6.314;2022-09-09T06:02:35;100356.34;;;13.60;100.00
29935;BME280;19905;53.370;-6.314;2022-09-09T06:05:07;100348.09;;;13.63;100.00
29935;BME280;19905;53.370;-6.314;2022-09-09T06:07:39;100356.06;;;13.63;100.00
29935;BME280;19905;53.370;-6.314;2022-09-09T06:10:10;100357.06;;;13.62;100.00
29935;BME280;19905;53.370;-6.314;2022-09-09T06:12:41;100355.38;;;13.61;100.00
29935;BME280;19905;53.370;-6.314;2022-09-09T06:15:10;100356.06;;;13.63;100.00
29935;BME280;19905;53.370;-6.314;2022-09-09T06:17:38;100362.19;;;13.63;100.00
29935;BME280;19905;53.370;-6.314;2022-09-09T06:20:09;100365.84;;;13.62;100.00
29935;BME280;19905;53.370;-6.314;2022-09-09T06:22:41;100369.06;;;13.66;100.00
29935;BME280;19905;53.370;-6.314;2022-09-09T06:25:11;100368.22;;;13.65;100.00
29935;BME280;19905;53.370;-6.314;2022-09-09T06:27:39;100379.66;;;13.66;100.00
29935;BME280;19905;53.370;-6.314;2022-09-09T06:30:10;100375.88;;;13.68;100.00
29935;BME280;19905;53.370;-6.314;2022-09-09T06:32:38;100382.72;;;13.71;100.00
29935;BME280;19905;53.370;-6.314;2022-09-09T06:35:07;100388.03;;;13.71;100.00
29935;BME280;19905;53.370;-6.314;2022-09-09T06:37:37;100384.38;;;13.72;100.00
29935;BME280;19905;53.370;-6.314;2022-09-09T06:40:09;100394.56;;;13.77;100.00
29935;BME280;19905;53.370;-6.314;2022-09-09T06:42:39;100393.44;;;13.79;100.00
29935;BME280;19905;53.370;-6.314;2022-09-09T06:45:09;100407.13;;;13.84;100.00
29935;BME280;19905;53.370;-6.314;2022-09-09T06:47:37;100414.38;;;13.82;100.00
29935;BME280;19905;53.370;-6.314;2022-09-09T06:50:07;100408.09;;;13.83;100.00
29935;BME280;19905;53.370;-6.314;2022-09-09T06:52:37;100414.94;;;13.86;100.00
29935;BME280;19905;53.370;-6.314;2022-09-09T06:55:09;100413.81;;;13.88;100.00
29935;BME280;19905;53.370;-6.314;2022-09-09T06:57:38;100412.50;;;13.92;100.00
29935;BME280;19905;53.370;-6.314;2022-09-09T07:00:07;100416.31;;;13.90;100.00
29935;BME280;19905;53.370;-6.314;2022-09-09T07:02:37;100418.53;;;13.94;100.00
29935;BME280;19905;53.370;-6.314;2022-09-09T07:05:07;100427.72;;;14.00;100.00
29935;BME280;19905;53.370;-6.314;2022-09-09T07:07:36;100434.88;;;13.99;100.00
29935;BME280;19905;53.370;-6.314;2022-09-09T07:10:05;100441.72;;;14.02;100.00
29935;BME280;19905;53.370;-6.314;2022-09-09T07:12:35;100438.06;;;14.03;100.00
29935;BME280;19905;53.370;-6.314;2022-09-09T07:15:06;100437.63;;;14.08;100.00
29935;BME280;19905;53.370;-6.314;2022-09-09T07:17:34;100443.63;;;14.10;100.00
29935;BME280;19905;53.370;-6.314;2022-09-09T07:20:04;100445.59;;;14.08;100.00
29935;BME280;19905;53.370;-6.314;2022-09-09T07:22:33;100448.66;;;14.13;100.00
29935;BME280;19905;53.370;-6.314;2022-09-09T07:25:02;100460.78;;;14.15;100.00
29935;BME280;19905;53.370;-6.314;2022-09-09T07:27:30;100460.22;;;14.21;100.00
29935;BME280;19905;53.370;-6.314;2022-09-09T07:30:00;100466.22;;;14.23;100.00
29935;BME280;19905;53.370;-6.314;2022-09-09T07:32:30;100476.56;;;14.27;100.00
29935;BME280;19905;53.370;-6.314;2022-09-09T07:35:00;100472.31;;;14.34;100.00
29935;BME280;19905;53.370;-6.314;2022-09-09T07:37:28;100473.25;;;14.42;100.00
29935;BME280;19905;53.370;-6.314;2022-09-09T07:39:57;100475.88;;;14.52;100.00
29935;BME280;19905;53.370;-6.314;2022-09-09T07:42:26;100489.03;;;14.54;100.00
29935;BME280;19905;53.370;-6.314;2022-09-09T07:44:54;100487.22;;;14.54;100.00
29935;BME280;19905;53.370;-6.314;2022-09-09T07:47:24;100484.00;;;14.51;100.00
29935;BME280;19905;53.370;-6.314;2022-09-09T07:49:53;100488.22;;;14.53;100.00
29935;BME280;19905;53.370;-6.314;2022-09-09T07:52:22;100490.94;;;14.61;100.00
29935;BME280;19905;53.370;-6.314;2022-09-09T07:54:51;100498.34;;;14.67;100.00
29935;BME280;19905;53.370;-6.314;2022-09-09T07:57:21;100495.78;;;14.76;100.00
29935;BME280;19905;53.370;-6.314;2022-09-09T07:59:50;100502.00;;;14.84;100.00
29935;BME280;19905;53.370;-6.314;2022-09-09T08:02:19;100518.75;;;14.94;100.00
29935;BME280;19905;53.370;-6.314;2022-09-09T08:04:49;100520.28;;;15.15;100.00
29935;BME280;19905;53.370;-6.314;2022-09-09T08:07:18;100521.41;;;15.30;100.00
29935;BME280;19905;53.370;-6.314;2022-09-09T08:09:49;100530.38;;;15.29;100.00
29935;BME280;19905;53.370;-6.314;2022-09-09T08:12:18;100534.66;;;15.40;100.00
29935;BME280;19905;53.370;-6.314;2022-09-09T08:14:47;100543.22;;;15.51;100.00
29935;BME280;19905;53.370;-6.314;2022-09-09T08:17:16;100547.81;;;15.59;100.00
29935;BME280;19905;53.370;-6.314;2022-09-09T08:19:49;100545.97;;;15.60;100.00
29935;BME280;19905;53.370;-6.314;2022-09-09T08:22:18;100544.69;;;15.46;100.00
29935;BME280;19905;53.370;-6.314;2022-09-09T08:24:47;100561.41;;;15.56;100.00
29935;BME280;19905;53.370;-6.314;2022-09-09T08:27:15;100560.78;;;15.62;100.00
29935;BME280;19905;53.370;-6.314;2022-09-09T08:29:44;100570.88;;;15.68;100.00
29935;BME280;19905;53.370;-6.314;2022-09-09T08:32:13;100572.22;;;15.55;100.00
29935;BME280;19905;53.370;-6.314;2022-09-09T08:34:41;100579.22;;;15.56;100.00
29935;BME280;19905;53.370;-6.314;2022-09-09T08:37:14;100580.50;;;15.51;100.00
29935;BME280;19905;53.370;-6.314;2022-09-09T08:39:44;100585.06;;;15.41;100.00
29935;BME280;19905;53.370;-6.314;2022-09-09T08:42:23;100582.78;;;15.46;100.00
29935;BME280;19905;53.370;-6.314;2022-09-09T08:45:05;100582.94;;;15.45;100.00
29935;BME280;19905;53.370;-6.314;2022-09-09T08:47:50;100589.09;;;15.45;100.00
29935;BME280;19905;53.370;-6.314;2022-09-09T08:50:22;100593.81;;;15.51;100.00
29935;BME280;19905;53.370;-6.314;2022-09-09T08:53:01;100590.03;;;15.54;100.00
29935;BME280;19905;53.370;-6.314;2022-09-09T08:55:38;100599.91;;;15.62;100.00
29935;BME280;19905;53.370;-6.314;2022-09-09T08:58:12;100602.38;;;15.73;100.00
29935;BME280;19905;53.370;-6.314;2022-09-09T09:00:52;100603.38;;;15.72;100.00
29935;BME280;19905;53.370;-6.314;2022-09-09T09:03:35;100622.59;;;15.66;100.00
29935;BME280;19905;53.370;-6.314;2022-09-09T09:06:20;100620.53;;;15.60;100.00
29935;BME280;19905;53.370;-6.314;2022-09-09T09:08:59;100625.84;;;15.60;100.00
29935;BME280;19905;53.370;-6.314;2022-09-09T09:11:35;100634.50;;;15.62;100.00
29935;BME280;19905;53.370;-6.314;2022-09-09T09:14:10;100640.50;;;15.73;100.00
29935;BME280;19905;53.370;-6.314;2022-09-09T09:16:50;100639.38;;;15.76;100.00
29935;BME280;19905;53.370;-6.314;2022-09-09T09:19:21;100639.28;;;15.68;100.00
29935;BME280;19905;53.370;-6.314;2022-09-09T09:21:57;100643.59;;;15.69;100.00
29935;BME280;19905;53.370;-6.314;2022-09-09T09:24:39;100655.09;;;15.69;100.00
29935;BME280;19905;53.370;-6.314;2022-09-09T09:27:13;100653.06;;;15.81;100.00
29935;BME280;19905;53.370;-6.314;2022-09-09T09:29:44;100660.13;;;15.90;100.00
29935;BME280;19905;53.370;-6.314;2022-09-09T09:32:36;100664.09;;;15.86;100.00
29935;BME280;19905;53.370;-6.314;2022-09-09T09:35:12;100664.66;;;15.98;100.00
29935;BME280;19905;53.370;-6.314;2022-09-09T09:37:41;100661.50;;;15.94;100.00
29935;BME280;19905;53.370;-6.314;2022-09-09T09:40:33;100666.75;;;16.04;100.00
29935;BME280;19905;53.370;-6.314;2022-09-09T09:43:03;100668.31;;;16.15;100.00
29935;BME280;19905;53.370;-6.314;2022-09-09T09:45:41;100673.28;;;16.10;100.00
29935;BME280;19905;53.370;-6.314;2022-09-09T09:48:31;100685.84;;;16.17;100.00
29935;BME280;19905;53.370;-6.314;2022-09-09T09:51:09;100687.34;;;16.20;100.00
29935;BME280;19905;53.370;-6.314;2022-09-09T09:53:40;100692.91;;;16.26;100.00
29935;BME280;19905;53.370;-6.314;2022-09-09T09:56:11;100689.38;;;16.26;100.00
29935;BME280;19905;53.370;-6.314;2022-09-09T09:58:49;100692.38;;;16.23;100.00
29935;BME280;19905;53.370;-6.314;2022-09-09T10:01:20;100690.00;;;16.38;100.00
29935;BME280;19905;53.370;-6.314;2022-09-09T10:03:54;100692.84;;;16.44;100.00
29935;BME280;19905;53.370;-6.314;2022-09-09T10:06:31;100694.81;;;16.60;100.00
29935;BME280;19905;53.370;-6.314;2022-09-09T10:09:02;100695.41;;;16.72;100.00
29935;BME280;19905;53.370;-6.314;2022-09-09T10:11:46;100693.81;;;16.61;100.00
29935;BME280;19905;53.370;-6.314;2022-09-09T10:14:24;100693.72;;;16.71;100.00
29935;BME280;19905;53.370;-6.314;2022-09-09T10:17:09;100693.97;;;16.77;100.00
29935;BME280;19905;53.370;-6.314;2022-09-09T10:19:45;100690.22;;;16.96;100.00
29935;BME280;19905;53.370;-6.314;2022-09-09T10:22:26;100684.63;;;17.16;100.00
29935;BME280;19905;53.370;-6.314;2022-09-09T10:25:15;100685.06;;;17.37;100.00
29935;BME280;19905;53.370;-6.314;2022-09-09T10:28:02;100680.69;;;17.36;100.00
29935;BME280;19905;53.370;-6.314;2022-09-09T10:30:49;100683.59;;;17.51;100.00
29935;BME280;19905;53.370;-6.314;2022-09-09T10:33:30;100676.56;;;17.42;100.00
29935;BME280;19905;53.370;-6.314;2022-09-09T10:36:08;100671.31;;;17.74;100.00
29935;BME280;19905;53.370;-6.314;2022-09-09T10:38:40;100668.16;;;17.95;100.00
29935;BME280;19905;53.370;-6.314;2022-09-09T10:41:18;100663.00;;;18.10;100.00
29935;BME280;19905;53.370;-6.314;2022-09-09T10:44:12;100649.13;;;18.07;100.00
29935;BME280;19905;53.370;-6.314;2022-09-09T10:46:55;100649.97;;;17.83;100.00
29935;BME280;19905;53.370;-6.314;2022-09-09T10:49:42;100652.41;;;17.68;100.00
29935;BME280;19905;53.370;-6.314;2022-09-09T10:52:26;100651.69;;;17.49;100.00
29935;BME280;19905;53.370;-6.314;2022-09-09T10:55:02;100660.69;;;17.40;100.00
29935;BME280;19905;53.370;-6.314;2022-09-09T10:57:39;100662.19;;;17.35;100.00
29935;BME280;19905;53.370;-6.314;2022-09-09T11:00:19;100666.34;;;17.29;100.00
29935;BME280;19905;53.370;-6.314;2022-09-09T11:02:51;100667.47;;;17.26;100.00
29935;BME280;19905;53.370;-6.314;2022-09-09T11:05:28;100669.66;;;17.23;100.00
29935;BME280;19905;53.370;-6.314;2022-09-09T11:08:04;100665.00;;;17.25;100.00
29935;BME280;19905;53.370;-6.314;2022-09-09T11:10:40;100674.88;;;17.41;100.00
29935;BME280;19905;53.370;-6.314;2022-09-09T11:13:17;100681.59;;;17.53;100.00
29935;BME280;19905;53.370;-6.314;2022-09-09T11:15:54;100679.63;;;17.55;100.00
29935;BME280;19905;53.370;-6.314;2022-09-09T11:18:29;100670.88;;;17.45;100.00
29935;BME280;19905;53.370;-6.314;2022-09-09T11:21:02;100673.91;;;17.50;100.00
29935;BME280;19905;53.370;-6.314;2022-09-09T11:23:38;100677.78;;;17.56;100.00
29935;BME280;19905;53.370;-6.314;2022-09-09T11:26:14;100673.09;;;17.58;100.00
29935;BME280;19905;53.370;-6.314;2022-09-09T11:28:55;100683.13;;;17.56;100.00
29935;BME280;19905;53.370;-6.314;2022-09-09T11:31:45;100677.53;;;17.41;100.00
29935;BME280;19905;53.370;-6.314;2022-09-09T11:34:31;100676.41;;;17.43;100.00
29935;BME280;19905;53.370;-6.314;2022-09-09T11:37:37;100687.97;;;17.68;100.00
29935;BME280;19905;53.370;-6.314;2022-09-09T11:40:18;100682.03;;;17.83;100.00
29935;BME280;19905;53.370;-6.314;2022-09-09T11:42:48;100689.19;;;17.90;100.00
29935;BME280;19905;53.370;-6.314;2022-09-09T11:45:24;100682.38;;;18.12;100.00
29935;BME280;19905;53.370;-6.314;2022-09-09T11:47:59;100683.53;;;18.10;100.00
29935;BME280;19905;53.370;-6.314;2022-09-09T11:50:34;100689.22;;;18.07;100.00
29935;BME280;19905;53.370;-6.314;2022-09-09T11:53:20;100682.22;;;18.06;100.00
29935;BME280;19905;53.370;-6.314;2022-09-09T11:56:12;100687.22;;;18.09;100.00
29935;BME280;19905;53.370;-6.314;2022-09-09T11:58:44;100691.72;;;18.08;100.00
29935;BME280;19905;53.370;-6.314;2022-09-09T12:01:37;100691.56;;;18.01;100.00
29935;BME280;19905;53.370;-6.314;2022-09-09T12:04:27;100696.22;;;17.99;100.00
29935;BME280;19905;53.370;-6.314;2022-09-09T12:07:00;100688.34;;;18.55;100.00
29935;BME280;19905;53.370;-6.314;2022-09-09T12:09:49;100657.19;;;19.34;100.00
29935;BME280;19905;53.370;-6.314;2022-09-09T12:12:29;100627.59;;;20.57;100.00
29935;BME280;19905;53.370;-6.314;2022-09-09T12:15:18;100587.41;;;20.93;100.00
29935;BME280;19905;53.370;-6.314;2022-09-09T12:17:49;100602.53;;;21.30;100.00
29935;BME280;19905;53.370;-6.314;2022-09-09T12:20:22;100586.09;;;21.04;100.00
29935;BME280;19905;53.370;-6.314;2022-09-09T12:23:04;100581.84;;;20.36;100.00
29935;BME280;19905;53.370;-6.314;2022-09-09T12:25:49;100615.91;;;19.74;100.00
29935;BME280;19905;53.370;-6.314;2022-09-09T12:28:23;100621.53;;;19.02;100.00
29935;BME280;19905;53.370;-6.314;2022-09-09T12:31:01;100656.75;;;18.83;100.00
29935;BME280;19905;53.370;-6.314;2022-09-09T12:33:36;100654.91;;;18.59;100.00
29935;BME280;19905;53.370;-6.314;2022-09-09T12:36:12;100668.81;;;18.71;100.00
29935;BME280;19905;53.370;-6.314;2022-09-09T12:38:43;100654.06;;;18.67;100.00
29935;BME280;19905;53.370;-6.314;2022-09-09T12:41:19;100650.06;;;18.79;100.00
29935;BME280;19905;53.370;-6.314;2022-09-09T12:43:49;100641.63;;;18.98;100.00
29935;BME280;19905;53.370;-6.314;2022-09-09T12:46:24;100641.66;;;19.29;100.00
29935;BME280;19905;53.370;-6.314;2022-09-09T12:48:58;100643.50;;;19.29;100.00
29935;BME280;19905;53.370;-6.314;2022-09-09T12:51:30;100645.94;;;19.39;100.00
29935;BME280;19905;53.370;-6.314;2022-09-09T12:54:00;100648.63;;;19.39;100.00
29935;BME280;19905;53.370;-6.314;2022-09-09T12:56:31;100657.25;;;19.18;100.00
29935;BME280;19905;53.370;-6.314;2022-09-09T12:59:01;100665.19;;;19.03;100.00
29935;BME280;19905;53.370;-6.314;2022-09-09T13:01:32;100682.78;;;18.97;100.00
29935;BME280;19905;53.370;-6.314;2022-09-09T13:04:02;100675.94;;;18.87;100.00
29935;BME280;19905;53.370;-6.314;2022-09-09T13:06:33;100678.28;;;18.98;100.00
29935;BME280;19905;53.370;-6.314;2022-09-09T13:09:02;100675.06;;;19.11;100.00